sensor_id;sensor_type;location;lat;lon;timestamp;pressure;altitude;pressure_sealevel;temperature;humidity
48015;BME280;33780;51.034;7.120;2023-04-27T00:00:26;101109.47;;;9.94;54.12
48015;BME280;33780;51.034;7.120;2023-04-27T00:02:51;101116.66;;;9.93;54.33
48015;BME280;33780;51.034;7.120;2023-04-27T00:05:17;101116.03;;;9.90;54.28
48015;BME280;33780;51.034;7.120;2023-04-27T00:07:42;101109.97;;;9.88;54.39
48015;BME280;33780;51.034;7.120;2023-04-27T00:10:08;101107.38;;;9.86;54.48
48015;BME280;33780;51.034;7.120;2023-04-27T00:12:33;101107.75;;;9.82;54.36
48015;BME280;33780;51.034;7.120;2023-04-27T00:14:58;101107.97;;;9.79;54.38
48015;BME280;33780;51.034;7.120;2023-04-27T00:17:24;101114.41;;;9.76;54.48
48015;BME280;33780;51.034;7.120;2023-04-27T00:19:49;101109.06;;;9.76;54.71
48015;BME280;33780;51.034;7.120;2023-04-27T00:22:14;101112.94;;;9.72;55.22
48015;BME280;33780;51.034;7.120;2023-04-27T00:24:40;101106.88;;;9.70;54.75
48015;BME280;33780;51.034;7.120;2023-04-27T00:27:06;101115.94;;;9.67;55.00
48015;BME280;33780;51.034;7.120;2023-04-27T00:29:31;101111.81;;;9.63;54.84
48015;BME280;33780;51.034;7.120;2023-04-27T00:31:56;101109.38;;;9.60;54.52
48015;BME280;33780;51.034;7.120;2023-04-27T00:34:21;101107.78;;;9.58;54.75
48015;BME280;33780;51.034;7.120;2023-04-27T00:36:47;101111.56;;;9.55;54.60
48015;BME280;33780;51.034;7.120;2023-04-27T00:39:12;101108.25;;;9.52;54.91
48015;BME280;33780;51.034;7.120;2023-04-27T00:41:37;101108.34;;;9.50;54.88
48015;BME280;33780;51.034;7.120;2023-04-27T00:44:05;101114.78;;;9.48;55.18
48015;BME280;33780;51.034;7.120;2023-04-27T00:46:32;101120.34;;;9.45;55.27
48015;BME280;33780;51.034;7.120;2023-04-27T00:48:59;101112.81;;;9.38;55.19
48015;BME280;33780;51.034;7.120;2023-04-27T00:51:25;101120.09;;;9.36;55.14
48015;BME280;33780;51.034;7.120;2023-04-27T00:53:52;101119.97;;;9.38;55.25
48015;BME280;33780;51.034;7.120;2023-04-27T00:56:18;101119.25;;;9.36;55.19
48015;BME280;33780;51.034;7.120;2023-04-27T00:58:43;101127.25;;;9.36;54.98
48015;BME280;33780;51.034;7.120;2023-04-27T01:01:09;101124.69;;;9.34;55.28
48015;BME280;33780;51.034;7.120;2023-04-27T01:03:35;101122.22;;;9.31;55.43
48015;BME280;33780;51.034;7.120;2023-04-27T01:06:00;101115.41;;;9.27;55.44
48015;BME280;33780;51.034;7.120;2023-04-27T01:08:27;101122.56;;;9.27;55.46
48015;BME280;33780;51.034;7.120;2023-04-27T01:10:52;101120.03;;;9.25;55.36
48015;BME280;33780;51.034;7.120;2023-04-27T01:13:18;101123.78;;;9.23;55.51
48015;BME280;33780;51.034;7.120;2023-04-27T01:15:43;101119.53;;;9.20;55.71
48015;BME280;33780;51.034;7.120;2023-04-27T01:18:08;101117.94;;;9.18;55.73
48015;BME280;33780;51.034;7.120;2023-04-27T01:20:33;101120.78;;;9.15;55.50
48015;BME280;33780;51.034;7.120;2023-04-27T01:23:00;101118.34;;;9.12;55.45
48015;BME280;33780;51.034;7.120;2023-04-27T01:25:25;101126.47;;;9.10;55.76
48015;BME280;33780;51.034;7.120;2023-04-27T01:27:50;101116.16;;;9.05;55.52
48015;BME280;33780;51.034;7.120;2023-04-27T01:30:16;101123.41;;;9.03;55.79
48015;BME280;33780;51.034;7.120;2023-04-27T01:32:41;101123.66;;;9.00;56.06
48015;BME280;33780;51.034;7.120;2023-04-27T01:35:07;101116.81;;;8.96;56.01
48015;BME280;33780;51.034;7.120;2023-04-27T01:37:33;101117.88;;;8.94;55.90
48015;BME280;33780;51.034;7.120;2023-04-27T01:39:58;101119.09;;;8.90;55.81
48015;BME280;33780;51.034;7.120;2023-04-27T01:42:24;101121.13;;;8.86;55.83
48015;BME280;33780;51.034;7.120;2023-04-27T01:44:50;101125.84;;;8.83;55.69
48015;BME280;33780;51.034;7.120;2023-04-27T01:47:15;101129.59;;;8.80;55.59
48015;BME280;33780;51.034;7.120;2023-04-27T01:49:43;101134.25;;;8.76;55.95
48015;BME280;33780;51.034;7.120;2023-04-27T01:52:08;101126.59;;;8.72;55.91
48015;BME280;33780;51.034;7.120;2023-04-27T01:54:34;101121.59;;;8.67;55.62
48015;BME280;33780;51.034;7.120;2023-04-27T01:56:59;101138.78;;;8.63;55.75
48015;BME280;33780;51.034;7.120;2023-04-27T01:59:26;101131.09;;;8.59;55.79
48015;BME280;33780;51.034;7.120;2023-04-27T02:01:52;101138.34;;;8.57;55.54
48015;BME280;33780;51.034;7.120;2023-04-27T02:04:17;101141.34;;;8.52;55.82
48015;BME280;33780;51.034;7.120;2023-04-27T02:06:42;101138.06;;;8.48;55.94
48015;BME280;33780;51.034;7.120;2023-04-27T02:09:07;101141.06;;;8.44;56.06
48015;BME280;33780;51.034;7.120;2023-04-27T02:11:33;101148.38;;;8.40;55.69
48015;BME280;33780;51.034;7.120;2023-04-27T02:13:58;101143.38;;;8.36;55.91
48015;BME280;33780;51.034;7.120;2023-04-27T02:16:23;101141.97;;;8.30;55.78
48015;BME280;33780;51.034;7.120;2023-04-27T02:18:49;101152.94;;;8.26;56.07
48015;BME280;33780;51.034;7.120;2023-04-27T02:21:17;101151.56;;;8.20;55.94
48015;BME280;33780;51.034;7.120;2023-04-27T02:23:43;101149.09;;;8.17;56.37
48015;BME280;33780;51.034;7.120;2023-04-27T02:26:17;101140.81;;;8.09;55.87
48015;BME280;33780;51.034;7.120;2023-04-27T02:28:43;101148.13;;;8.05;56.61
48015;BME280;33780;51.034;7.120;2023-04-27T02:31:10;101145.78;;;8.01;56.13
48015;BME280;33780;51.034;7.120;2023-04-27T02:33:35;101149.53;;;7.98;56.27
48015;BME280;33780;51.034;7.120;2023-04-27T02:36:00;101141.00;;;7.93;56.40
48015;BME280;33780;51.034;7.120;2023-04-27T02:38:25;101136.81;;;7.89;56.33
48015;BME280;33780;51.034;7.120;2023-04-27T02:40:53;101143.31;;;7.85;56.53
48015;BME280;33780;51.034;7.120;2023-04-27T02:43:19;101141.81;;;7.81;56.97
48015;BME280;33780;51.034;7.120;2023-04-27T02:45:44;101137.75;;;7.75;56.86
48015;BME280;33780;51.034;7.120;2023-04-27T02:48:09;101141.56;;;7.71;57.07
48015;BME280;33780;51.034;7.120;2023-04-27T02:50:42;101141.03;;;7.66;56.88
48015;BME280;33780;51.034;7.120;2023-04-27T02:53:08;101137.72;;;7.63;56.69
48015;BME280;33780;51.034;7.120;2023-04-27T02:55:33;101133.34;;;7.62;57.06
48015;BME280;33780;51.034;7.120;2023-04-27T02:57:59;101138.88;;;7.58;56.89
48015;BME280;33780;51.034;7.120;2023-04-27T03:00:24;101128.53;;;7.54;57.00
48015;BME280;33780;51.034;7.120;2023-04-27T03:02:49;101132.25;;;7.51;56.59
48015;BME280;33780;51.034;7.120;2023-04-27T03:05:15;101135.13;;;7.48;57.04
48015;BME280;33780;51.034;7.120;2023-04-27T03:07:40;101129.16;;;7.45;57.12
48015;BME280;33780;51.034;7.120;2023-04-27T03:10:06;101125.84;;;7.41;56.96
48015;BME280;33780;51.034;7.120;2023-04-27T03:12:32;101123.38;;;7.38;57.20
48015;BME280;33780;51.034;7.120;2023-04-27T03:14:57;101124.50;;;7.34;57.24
48015;BME280;33780;51.034;7.120;2023-04-27T03:17:23;101126.44;;;7.32;56.95
48015;BME280;33780;51.034;7.120;2023-04-27T03:19:48;101123.13;;;7.28;56.90
48015;BME280;33780;51.034;7.120;2023-04-27T03:22:14;101126.00;;;7.25;57.14
48015;BME280;33780;51.034;7.120;2023-04-27T03:24:39;101128.84;;;7.22;56.93
48015;BME280;33780;51.034;7.120;2023-04-27T03:27:05;101126.41;;;7.19;57.38
48015;BME280;33780;51.034;7.120;2023-04-27T03:29:30;101123.06;;;7.16;57.09
48015;BME280;33780;51.034;7.120;2023-04-27T03:31:55;101125.19;;;7.11;57.05
48015;BME280;33780;51.034;7.120;2023-04-27T03:34:21;101132.41;;;7.09;57.21
48015;BME280;33780;51.034;7.120;2023-04-27T03:36:47;101129.84;;;7.07;57.37
48015;BME280;33780;51.034;7.120;2023-04-27T03:39:13;101127.41;;;7.04;57.14
48015;BME280;33780;51.034;7.120;2023-04-27T03:41:38;101128.53;;;7.00;57.24
48015;BME280;33780;51.034;7.120;2023-04-27T03:44:03;101133.19;;;6.96;57.20
48015;BME280;33780;51.034;7.120;2023-04-27T03:46:28;101134.34;;;6.92;57.62
48015;BME280;33780;51.034;7.120;2023-04-27T03:48:54;101129.22;;;6.89;57.20
48015;BME280;33780;51.034;7.120;2023-04-27T03:51:19;101127.63;;;6.87;57.57
48015;BME280;33780;51.034;7.120;2023-04-27T03:53:44;101123.25;;;6.86;57.33
48015;BME280;33780;51.034;7.120;2023-04-27T03:56:10;101129.63;;;6.83;57.71
48015;BME280;33780;51.034;7.120;2023-04-27T03:58:35;101126.28;;;6.80;57.71
48015;BME280;33780;51.034;7.120;2023-04-27T04:01:01;101136.16;;;6.78;57.45
48015;BME280;33780;51.034;7.120;2023-04-27T04:03:26;101138.06;;;6.76;57.34
48015;BME280;33780;51.034;7.120;2023-04-27T04:05:51;101134.66;;;6.74;57.59
48015;BME280;33780;51.034;7.120;2023-04-27T04:08:17;101135.81;;;6.70;57.43
48015;BME280;33780;51.034;7.120;2023-04-27T04:10:42;101142.19;;;6.67;57.45
48015;BME280;33780;51.034;7.120;2023-04-27T04:13:07;101148.56;;;6.64;57.67
48015;BME280;33780;51.034;7.120;2023-04-27T04:15:32;101147.75;;;6.62;57.54
48015;BME280;33780;51.034;7.120;2023-04-27T04:17:58;101144.44;;;6.59;57.81
48015;BME280;33780;51.034;7.120;2023-04-27T04:20:23;101159.66;;;6.57;57.64
48015;BME280;33780;51.034;7.120;2023-04-27T04:22:48;101161.56;;;6.55;57.50
48015;BME280;33780;51.034;7.120;2023-04-27T04:25:13;101167.06;;;6.52;57.71
48015;BME280;33780;51.034;7.120;2023-04-27T04:27:39;101170.78;;;6.49;57.83
48015;BME280;33780;51.034;7.120;2023-04-27T04:30:05;101168.22;;;6.48;57.40
48015;BME280;33780;51.034;7.120;2023-04-27T04:32:31;101167.34;;;6.47;57.65
48015;BME280;33780;51.034;7.120;2023-04-27T04:34:58;101161.34;;;6.44;58.05
48015;BME280;33780;51.034;7.120;2023-04-27T04:37:25;101174.72;;;6.42;58.06
48015;BME280;33780;51.034;7.120;2023-04-27T04:39:50;101172.28;;;6.39;58.18
48015;BME280;33780;51.034;7.120;2023-04-27T04:42:16;101172.38;;;6.38;57.95
48015;BME280;33780;51.034;7.120;2023-04-27T04:44:41;101174.16;;;6.37;57.93
48015;BME280;33780;51.034;7.120;2023-04-27T04:47:07;101180.44;;;6.36;57.94
48015;BME280;33780;51.034;7.120;2023-04-27T04:49:34;101179.59;;;6.35;58.45
48015;BME280;33780;51.034;7.120;2023-04-27T04:51:59;101179.69;;;6.34;58.24
48015;BME280;33780;51.034;7.120;2023-04-27T04:54:25;101179.69;;;6.34;58.06
48015;BME280;33780;51.034;7.120;2023-04-27T04:56:50;101183.28;;;6.33;58.31
48015;BME280;33780;51.034;7.120;2023-04-27T04:59:15;101171.03;;;6.30;58.61
48015;BME280;33780;51.034;7.120;2023-04-27T05:01:41;101184.25;;;6.32;58.40
48015;BME280;33780;51.034;7.120;2023-04-27T05:04:06;101179.13;;;6.29;58.63
48015;BME280;33780;51.034;7.120;2023-04-27T05:06:32;101183.56;;;6.28;58.69
48015;BME280;33780;51.034;7.120;2023-04-27T05:08:57;101187.16;;;6.27;58.80
48015;BME280;33780;51.034;7.120;2023-04-27T05:11:23;101182.78;;;6.26;59.12
48015;BME280;33780;51.034;7.120;2023-04-27T05:13:48;101193.41;;;6.26;58.99
48015;BME280;33780;51.034;7.120;2023-04-27T05:16:14;101188.97;;;6.27;59.25
48015;BME280;33780;51.034;7.120;2023-04-27T05:18:39;101200.44;;;6.27;59.30
48015;BME280;33780;51.034;7.120;2023-04-27T05:21:12;101191.63;;;6.27;59.60
48015;BME280;33780;51.034;7.120;2023-04-27T05:23:37;101195.13;;;6.27;58.91
48015;BME280;33780;51.034;7.120;2023-04-27T05:26:10;101200.38;;;6.29;59.60
48015;BME280;33780;51.034;7.120;2023-04-27T05:28:35;101198.47;;;6.31;58.95
48015;BME280;33780;51.034;7.120;2023-04-27T05:31:01;101198.47;;;6.31;59.25
48015;BME280;33780;51.034;7.120;2023-04-27T05:33:26;101202.84;;;6.32;59.15
48015;BME280;33780;51.034;7.120;2023-04-27T05:35:51;101201.81;;;6.34;59.60
48015;BME280;33780;51.034;7.120;2023-04-27T05:38:16;101194.59;;;6.36;58.82
48015;BME280;33780;51.034;7.120;2023-04-27T05:40:42;101201.59;;;6.38;59.35
48015;BME280;33780;51.034;7.120;2023-04-27T05:43:07;101196.19;;;6.39;59.80
48015;BME280;33780;51.034;7.120;2023-04-27T05:45:32;101204.94;;;6.41;59.74
48015;BME280;33780;51.034;7.120;2023-04-27T05:47:58;101200.28;;;6.45;59.66
48015;BME280;33780;51.034;7.120;2023-04-27T05:50:23;101209.03;;;6.47;59.69
48015;BME280;33780;51.034;7.120;2023-04-27T05:52:48;101210.66;;;6.49;59.56
48015;BME280;33780;51.034;7.120;2023-04-27T05:55:14;101206.09;;;6.51;59.82
48015;BME280;33780;51.034;7.120;2023-04-27T05:57:39;101211.97;;;6.56;60.09
48015;BME280;33780;51.034;7.120;2023-04-27T06:00:07;101209.13;;;6.59;59.88
48015;BME280;33780;51.034;7.120;2023-04-27T06:02:35;101213.22;;;6.65;60.10
48015;BME280;33780;51.034;7.120;2023-04-27T06:05:00;101215.59;;;6.70;60.44
48015;BME280;33780;51.034;7.120;2023-04-27T06:07:25;101207.31;;;6.74;60.57
48015;BME280;33780;51.034;7.120;2023-04-27T06:09:51;101212.34;;;6.79;60.73
48015;BME280;33780;51.034;7.120;2023-04-27T06:12:16;101216.56;;;6.83;60.96
48015;BME280;33780;51.034;7.120;2023-04-27T06:14:41;101218.81;;;6.89;61.26
48015;BME280;33780;51.034;7.120;2023-04-27T06:17:07;101213.97;;;6.95;60.67
48015;BME280;33780;51.034;7.120;2023-04-27T06:19:32;101219.88;;;7.01;60.52
48015;BME280;33780;51.034;7.120;2023-04-27T06:21:57;101225.56;;;7.09;60.95
48015;BME280;33780;51.034;7.120;2023-04-27T06:24:22;101228.75;;;7.14;60.60
48015;BME280;33780;51.034;7.120;2023-04-27T06:26:49;101230.97;;;7.21;60.41
48015;BME280;33780;51.034;7.120;2023-04-27T06:29:14;101218.09;;;7.28;60.47
48015;BME280;33780;51.034;7.120;2023-04-27T06:31:40;101204.28;;;7.36;61.12
48015;BME280;33780;51.034;7.120;2023-04-27T06:34:05;101204.88;;;7.41;60.75
48015;BME280;33780;51.034;7.120;2023-04-27T06:36:31;101214.25;;;7.46;60.02
48015;BME280;33780;51.034;7.120;2023-04-27T06:38:56;101213.00;;;7.52;60.23
48015;BME280;33780;51.034;7.120;2023-04-27T06:41:23;101215.28;;;7.58;59.93
48015;BME280;33780;51.034;7.120;2023-04-27T06:43:48;101216.56;;;7.65;59.85
48015;BME280;33780;51.034;7.120;2023-04-27T06:46:14;101210.75;;;7.73;59.94
48015;BME280;33780;51.034;7.120;2023-04-27T06:48:39;101206.81;;;7.78;60.00
48015;BME280;33780;51.034;7.120;2023-04-27T06:51:05;101215.44;;;7.82;59.76
48015;BME280;33780;51.034;7.120;2023-04-27T06:53:30;101217.91;;;7.85;59.62
48015;BME280;33780;51.034;7.120;2023-04-27T06:55:56;101215.25;;;7.85;59.05
48015;BME280;33780;51.034;7.120;2023-04-27T06:58:21;101209.59;;;7.89;59.27
48015;BME280;33780;51.034;7.120;2023-04-27T07:00:47;101210.06;;;7.96;58.83
48015;BME280;33780;51.034;7.120;2023-04-27T07:03:12;101198.88;;;8.04;58.50
48015;BME280;33780;51.034;7.120;2023-04-27T07:05:38;101201.16;;;8.10;58.27
48015;BME280;33780;51.034;7.120;2023-04-27T07:08:03;101202.44;;;8.17;58.71
48015;BME280;33780;51.034;7.120;2023-04-27T07:10:28;101205.50;;;8.24;58.52
48015;BME280;33780;51.034;7.120;2023-04-27T07:12:54;101202.44;;;8.30;58.22
48015;BME280;33780;51.034;7.120;2023-04-27T07:15:20;101204.72;;;8.36;58.41
48015;BME280;33780;51.034;7.120;2023-04-27T07:17:45;101207.06;;;8.40;58.26
48015;BME280;33780;51.034;7.120;2023-04-27T07:20:10;101206.66;;;8.46;57.83
48015;BME280;33780;51.034;7.120;2023-04-27T07:22:38;101196.63;;;8.50;57.67
48015;BME280;33780;51.034;7.120;2023-04-27T07:25:04;101200.78;;;8.54;57.31
48015;BME280;33780;51.034;7.120;2023-04-27T07:27:30;101195.00;;;8.60;57.57
48015;BME280;33780;51.034;7.120;2023-04-27T07:29:56;101192.78;;;8.67;57.95
48015;BME280;33780;51.034;7.120;2023-04-27T07:32:21;101193.19;;;8.73;57.38
48015;BME280;33780;51.034;7.120;2023-04-27T07:34:46;101190.97;;;8.80;57.65
48015;BME280;33780;51.034;7.120;2023-04-27T07:37:12;101189.66;;;8.86;57.52
48015;BME280;33780;51.034;7.120;2023-04-27T07:39:38;101189.31;;;8.90;57.07
48015;BME280;33780;51.034;7.120;2023-04-27T07:42:03;101200.53;;;8.95;57.33
48015;BME280;33780;51.034;7.120;2023-04-27T07:44:30;101193.06;;;9.00;56.59
48015;BME280;33780;51.034;7.120;2023-04-27T07:46:55;101192.72;;;9.05;56.81
48015;BME280;33780;51.034;7.120;2023-04-27T07:49:22;101196.75;;;9.11;56.76
48015;BME280;33780;51.034;7.120;2023-04-27T07:51:49;101188.31;;;9.17;56.74
48015;BME280;33780;51.034;7.120;2023-04-27T07:54:14;101199.63;;;9.20;56.39
48015;BME280;33780;51.034;7.120;2023-04-27T07:56:40;101187.63;;;9.26;56.18
48015;BME280;33780;51.034;7.120;2023-04-27T07:59:06;101190.09;;;9.29;54.88
48015;BME280;33780;51.034;7.120;2023-04-27T08:01:31;101197.84;;;9.32;54.87
48015;BME280;33780;51.034;7.120;2023-04-27T08:03:56;101192.31;;;9.35;53.49
48015;BME280;33780;51.034;7.120;2023-04-27T08:06:22;101184.09;;;9.38;53.87
48015;BME280;33780;51.034;7.120;2023-04-27T08:08:47;101185.56;;;9.42;53.82
48015;BME280;33780;51.034;7.120;2023-04-27T08:11:12;101186.16;;;9.46;53.24
48015;BME280;33780;51.034;7.120;2023-04-27T08:13:38;101189.59;;;9.48;52.11
48015;BME280;33780;51.034;7.120;2023-04-27T08:16:03;101192.78;;;9.53;52.54
48015;BME280;33780;51.034;7.120;2023-04-27T08:18:29;101189.78;;;9.57;53.24
48015;BME280;33780;51.034;7.120;2023-04-27T08:20:54;101180.66;;;9.60;50.09
48015;BME280;33780;51.034;7.120;2023-04-27T08:23:20;101177.53;;;9.66;50.55
48015;BME280;33780;51.034;7.120;2023-04-27T08:28:19;101176.84;;;9.75;51.26
48015;BME280;33780;51.034;7.120;2023-04-27T08:30:44;101173.59;;;9.83;51.05
48015;BME280;33780;51.034;7.120;2023-04-27T08:33:10;101172.28;;;9.88;50.55
48015;BME280;33780;51.034;7.120;2023-04-27T08:35:35;101169.16;;;9.94;50.41
48015;BME280;33780;51.034;7.120;2023-04-27T08:38:01;101171.34;;;10.00;50.53
48015;BME280;33780;51.034;7.120;2023-04-27T08:40:26;101167.38;;;10.06;48.77
48015;BME280;33780;51.034;7.120;2023-04-27T08:42:56;101162.41;;;10.13;50.02
48015;BME280;33780;51.034;7.120;2023-04-27T08:45:23;101163.72;;;10.18;50.25
48015;BME280;33780;51.034;7.120;2023-04-27T08:47:49;101161.63;;;10.23;50.21
48015;BME280;33780;51.034;7.120;2023-04-27T08:50:14;101165.50;;;10.31;50.63
48015;BME280;33780;51.034;7.120;2023-04-27T08:52:43;101159.91;;;10.34;49.27
48015;BME280;33780;51.034;7.120;2023-04-27T08:55:08;101160.19;;;10.42;49.66
48015;BME280;33780;51.034;7.120;2023-04-27T08:57:34;101157.88;;;10.48;50.02
48015;BME280;33780;51.034;7.120;2023-04-27T08:59:59;101164.31;;;10.57;49.71
48015;BME280;33780;51.034;7.120;2023-04-27T09:02:25;101159.47;;;10.62;49.34
48015;BME280;33780;51.034;7.120;2023-04-27T09:04:53;101156.53;;;10.65;48.57
48015;BME280;33780;51.034;7.120;2023-04-27T09:07:20;101158.59;;;10.73;48.64
48015;BME280;33780;51.034;7.120;2023-04-27T09:09:45;101151.91;;;10.78;49.54
48015;BME280;33780;51.034;7.120;2023-04-27T09:12:21;101160.19;;;10.86;48.92
48015;BME280;33780;51.034;7.120;2023-04-27T09:15:00;101151.91;;;10.89;48.61
48015;BME280;33780;51.034;7.120;2023-04-27T09:17:28;101153.34;;;10.94;48.34
48015;BME280;33780;51.034;7.120;2023-04-27T09:20:05;101145.69;;;11.00;48.98
48015;BME280;33780;51.034;7.120;2023-04-27T09:22:45;101146.88;;;11.07;49.26
48015;BME280;33780;51.034;7.120;2023-04-27T09:25:27;101139.22;;;11.14;49.13
48015;BME280;33780;51.034;7.120;2023-04-27T09:27:54;101143.09;;;11.21;48.49
48015;BME280;33780;51.034;7.120;2023-04-27T09:30:20;101139.91;;;11.27;48.88
48015;BME280;33780;51.034;7.120;2023-04-27T09:33:03;101144.63;;;11.35;48.90
48015;BME280;33780;51.034;7.120;2023-04-27T09:35:31;101143.28;;;11.40;48.69
48015;BME280;33780;51.034;7.120;2023-04-27T09:37:58;101136.81;;;11.43;47.50
48015;BME280;33780;51.034;7.120;2023-04-27T09:40:27;101136.41;;;11.47;48.35
48015;BME280;33780;51.034;7.120;2023-04-27T09:43:00;101137.50;;;11.56;48.86
48015;BME280;33780;51.034;7.120;2023-04-27T09:45:26;101140.50;;;11.63;49.05
48015;BME280;33780;51.034;7.120;2023-04-27T09:47:52;101132.69;;;11.71;49.11
48015;BME280;33780;51.034;7.120;2023-04-27T09:50:17;101133.75;;;11.79;49.17
48015;BME280;33780;51.034;7.120;2023-04-27T09:52:44;101124.47;;;11.84;47.79
48015;BME280;33780;51.034;7.120;2023-04-27T09:55:14;101129.06;;;11.93;48.85
48015;BME280;33780;51.034;7.120;2023-04-27T10:03:25;101126.13;;;12.17;48.22
48015;BME280;33780;51.034;7.120;2023-04-27T10:08:34;101116.75;;;12.32;46.53
48015;BME280;33780;51.034;7.120;2023-04-27T10:10:59;101115.75;;;12.33;45.78
48015;BME280;33780;51.034;7.120;2023-04-27T10:13:25;101114.50;;;12.37;46.59
48015;BME280;33780;51.034;7.120;2023-04-27T10:15:51;101114.13;;;12.42;45.54
48015;BME280;33780;51.034;7.120;2023-04-27T10:18:29;101107.50;;;12.46;45.10
48015;BME280;33780;51.034;7.120;2023-04-27T10:21:09;101103.69;;;12.48;44.86
48015;BME280;33780;51.034;7.120;2023-04-27T10:23:45;101102.56;;;12.51;44.21
48015;BME280;33780;51.034;7.120;2023-04-27T10:26:11;101098.63;;;12.55;45.26
48015;BME280;33780;51.034;7.120;2023-04-27T10:28:37;101099.78;;;12.62;45.90
48015;BME280;33780;51.034;7.120;2023-04-27T10:31:08;101096.00;;;12.74;45.79
48015;BME280;33780;51.034;7.120;2023-04-27T10:33:41;101094.06;;;12.86;46.85
48015;BME280;33780;51.034;7.120;2023-04-27T10:36:13;101087.03;;;12.94;45.58
48015;BME280;33780;51.034;7.120;2023-04-27T10:38:39;101082.38;;;13.06;45.89
48015;BME280;33780;51.034;7.120;2023-04-27T10:41:12;101084.84;;;13.19;45.97
48015;BME280;33780;51.034;7.120;2023-04-27T10:43:38;101084.13;;;13.26;45.91
48015;BME280;33780;51.034;7.120;2023-04-27T10:46:14;101078.78;;;13.36;45.76
48015;BME280;33780;51.034;7.120;2023-04-27T10:48:40;101076.50;;;13.41;44.57
48015;BME280;33780;51.034;7.120;2023-04-27T10:51:07;101072.81;;;13.42;44.06
48015;BME280;33780;51.034;7.120;2023-04-27T10:53:36;101077.34;;;13.42;42.24
48015;BME280;33780;51.034;7.120;2023-04-27T10:56:02;101072.81;;;13.42;42.23
48015;BME280;33780;51.034;7.120;2023-04-27T10:58:31;101067.88;;;13.38;43.30
48015;BME280;33780;51.034;7.120;2023-04-27T11:00:56;101070.28;;;13.41;43.07
48015;BME280;33780;51.034;7.120;2023-04-27T11:03:22;101067.44;;;13.42;43.04
48015;BME280;33780;51.034;7.120;2023-04-27T11:05:50;101063.22;;;13.49;44.00
48015;BME280;33780;51.034;7.120;2023-04-27T11:08:22;101068.72;;;13.57;44.54
48015;BME280;33780;51.034;7.120;2023-04-27T11:10:49;101061.06;;;13.63;43.75
48015;BME280;33780;51.034;7.120;2023-04-27T11:13:20;101056.81;;;13.70;44.56
48015;BME280;33780;51.034;7.120;2023-04-27T11:15:51;101059.91;;;13.75;44.06
48015;BME280;33780;51.034;7.120;2023-04-27T11:18:19;101055.94;;;13.79;44.33
48015;BME280;33780;51.034;7.120;2023-04-27T11:20:48;101055.53;;;13.83;44.25
48015;BME280;33780;51.034;7.120;2023-04-27T11:23:24;101069.53;;;13.87;43.51
48015;BME280;33780;51.034;7.120;2023-04-27T11:25:50;101058.03;;;13.95;44.39
48015;BME280;33780;51.034;7.120;2023-04-27T11:28:17;101054.63;;;14.02;44.45
48015;BME280;33780;51.034;7.120;2023-04-27T11:30:43;101047.66;;;14.09;43.59
48015;BME280;33780;51.034;7.120;2023-04-27T11:33:08;101041.13;;;14.12;42.90
48015;BME280;33780;51.034;7.120;2023-04-27T11:35:34;101052.59;;;14.14;42.55
48015;BME280;33780;51.034;7.120;2023-04-27T11:37:59;101043.22;;;14.18;43.00
48015;BME280;33780;51.034;7.120;2023-04-27T11:40:25;101042.13;;;14.20;42.28
48015;BME280;33780;51.034;7.120;2023-04-27T11:42:59;101041.97;;;14.22;42.77
48015;BME280;33780;51.034;7.120;2023-04-27T11:45:27;101040.81;;;14.25;42.70
48015;BME280;33780;51.034;7.120;2023-04-27T11:47:53;101042.38;;;14.27;42.31
48015;BME280;33780;51.034;7.120;2023-04-27T11:50:18;101038.69;;;14.28;42.58
48015;BME280;33780;51.034;7.120;2023-04-27T11:52:47;101034.84;;;14.31;42.33
48015;BME280;33780;51.034;7.120;2023-04-27T11:55:13;101016.69;;;14.33;42.68
48015;BME280;33780;51.034;7.120;2023-04-27T11:57:40;101019.94;;;14.36;42.91
48015;BME280;33780;51.034;7.120;2023-04-27T12:00:07;101014.25;;;14.39;42.24
48015;BME280;33780;51.034;7.120;2023-04-27T12:02:35;101012.56;;;14.38;41.29
48015;BME280;33780;51.034;7.120;2023-04-27T12:05:01;101018.66;;;14.40;41.92
48015;BME280;33780;51.034;7.120;2023-04-27T12:07:26;101019.66;;;14.39;42.30
48015;BME280;33780;51.034;7.120;2023-04-27T12:09:52;101014.25;;;14.39;41.00
48015;BME280;33780;51.034;7.120;2023-04-27T12:12:17;101004.50;;;14.38;41.26
48015;BME280;33780;51.034;7.120;2023-04-27T12:14:46;101010.88;;;14.37;41.77
48015;BME280;33780;51.034;7.120;2023-04-27T12:17:12;101008.19;;;14.37;41.82
48015;BME280;33780;51.034;7.120;2023-04-27T12:19:37;101013.69;;;14.36;39.96
48015;BME280;33780;51.034;7.120;2023-04-27T12:22:03;101011.00;;;14.36;40.73
48015;BME280;33780;51.034;7.120;2023-04-27T12:24:28;101010.16;;;14.35;41.79
48015;BME280;33780;51.034;7.120;2023-04-27T12:26:54;101003.19;;;14.42;42.14
48015;BME280;33780;51.034;7.120;2023-04-27T12:29:19;101000.91;;;14.47;42.17
48015;BME280;33780;51.034;7.120;2023-04-27T12:31:45;100994.81;;;14.55;41.64
48015;BME280;33780;51.034;7.120;2023-04-27T12:34:11;100991.19;;;14.64;41.91
48015;BME280;33780;51.034;7.120;2023-04-27T12:36:36;100990.28;;;14.73;41.96
48015;BME280;33780;51.034;7.120;2023-04-27T12:39:16;100984.66;;;14.85;41.91
48015;BME280;33780;51.034;7.120;2023-04-27T12:41:43;100986.47;;;14.94;40.93
48015;BME280;33780;51.034;7.120;2023-04-27T12:44:08;100986.53;;;15.02;41.14
48015;BME280;33780;51.034;7.120;2023-04-27T12:46:34;100985.03;;;15.07;40.89
48015;BME280;33780;51.034;7.120;2023-04-27T12:48:59;100985.97;;;15.16;40.17
48015;BME280;33780;51.034;7.120;2023-04-27T12:51:26;100987.03;;;15.23;40.61
48015;BME280;33780;51.034;7.120;2023-04-27T12:53:52;100992.53;;;15.31;39.90
48015;BME280;33780;51.034;7.120;2023-04-27T12:56:17;100981.94;;;15.38;39.80
48015;BME280;33780;51.034;7.120;2023-04-27T12:58:43;100986.88;;;15.42;39.95
48015;BME280;33780;51.034;7.120;2023-04-27T13:01:09;100986.41;;;15.47;40.29
48015;BME280;33780;51.034;7.120;2023-04-27T13:03:47;100984.78;;;15.54;40.10